sensor_id;sensor_type;location;lat;lon;timestamp;pressure;altitude;pressure_sealevel;temperature;humidity
3444;BME280;1736;52.068;6.968;2024-02-21T00:01:18;102011.75;;;8.53;100.00
3444;BME280;1736;52.068;6.968;2024-02-21T00:03:46;102014.25;;;8.56;100.00
3444;BME280;1736;52.068;6.968;2024-02-21T00:06:13;102008.88;;;8.73;100.00
3444;BME280;1736;52.068;6.968;2024-02-21T00:08:39;102006.13;;;8.59;100.00
3444;BME280;1736;52.068;6.968;2024-02-21T00:11:06;101998.81;;;8.64;100.00
3444;BME280;1736;52.068;6.968;2024-02-21T00:13:32;102019.19;;;8.62;100.00
3444;BME280;1736;52.068;6.968;2024-02-21T00:16:00;101995.53;;;8.59;100.00
3444;BME280;1736;52.068;6.968;2024-02-21T00:18:26;101998.88;;;8.78;100.00
3444;BME280;1736;52.068;6.968;2024-02-21T00:20:55;101993.50;;;8.64;100.00
3444;BME280;1736;52.068;6.968;2024-02-21T00:23:22;101984.72;;;8.64;100.00
3444;BME280;1736;52.068;6.968;2024-02-21T00:25:48;101988.22;;;8.64;100.00
3444;BME280;1736;52.068;6.968;2024-02-21T00:28:15;101974.03;;;8.65;100.00
3444;BME280;1736;52.068;6.968;2024-02-21T00:30:41;101981.53;;;8.73;100.00
3444;BME280;1736;52.068;6.968;2024-02-21T00:33:08;101966.69;;;8.55;100.00
3444;BME280;1736;52.068;6.968;2024-02-21T00:35:34;101960.38;;;8.57;100.00
3444;BME280;1736;52.068;6.968;2024-02-21T00:38:03;101968.56;;;8.53;100.00
3444;BME280;1736;52.068;6.968;2024-02-21T00:40:29;101967.88;;;8.49;100.00
3444;BME280;1736;52.068;6.968;2024-02-21T00:42:56;101967.72;;;8.68;100.00
3444;BME280;1736;52.068;6.968;2024-02-21T00:45:22;101970.28;;;8.69;100.00
3444;BME280;1736;52.068;6.968;2024-02-21T00:47:49;101974.56;;;8.72;100.00
3444;BME280;1736;52.068;6.968;2024-02-21T00:50:15;101967.72;;;8.68;100.00
3444;BME280;1736;52.068;6.968;2024-02-21T00:52:42;101953.81;;;8.64;100.00
3444;BME280;1736;52.068;6.968;2024-02-21T00:55:10;101952.28;;;8.76;100.00
3444;BME280;1736;52.068;6.968;2024-02-21T00:57:37;101948.75;;;8.75;100.00
3444;BME280;1736;52.068;6.968;2024-02-21T01:00:05;101940.66;;;8.78;100.00
3444;BME280;1736;52.068;6.968;2024-02-21T01:02:33;101941.84;;;8.73;100.00
3444;BME280;1736;52.068;6.968;2024-02-21T01:05:00;101937.34;;;8.75;100.00
3444;BME280;1736;52.068;6.968;2024-02-21T01:07:26;101932.28;;;8.70;100.00
3444;BME280;1736;52.068;6.968;2024-02-21T01:09:53;101944.31;;;8.76;100.00
3444;BME280;1736;52.068;6.968;2024-02-21T01:12:21;101936.47;;;8.74;100.00
3444;BME280;1736;52.068;6.968;2024-02-21T01:14:47;101931.34;;;8.71;100.00
3444;BME280;1736;52.068;6.968;2024-02-21T01:17:14;101988.03;;;8.67;100.00
3444;BME280;1736;52.068;6.968;2024-02-21T01:19:41;101948.59;;;8.78;100.00
3444;BME280;1736;52.068;6.968;2024-02-21T01:22:07;102016.19;;;8.68;100.00
3444;BME280;1736;52.068;6.968;2024-02-21T01:24:34;101940.06;;;8.73;100.00
3444;BME280;1736;52.068;6.968;2024-02-21T01:27:00;102022.69;;;8.78;100.00
3444;BME280;1736;52.068;6.968;2024-02-21T01:29:28;102019.69;;;8.69;100.00
3444;BME280;1736;52.068;6.968;2024-02-21T01:31:55;101910.16;;;8.71;100.00
3444;BME280;1736;52.068;6.968;2024-02-21T01:34:21;101920.25;;;8.65;100.00
3444;BME280;1736;52.068;6.968;2024-02-21T01:36:48;101904.91;;;8.56;100.00
3444;BME280;1736;52.068;6.968;2024-02-21T01:39:15;101927.88;;;8.71;100.00
3444;BME280;1736;52.068;6.968;2024-02-21T01:41:42;101915.47;;;8.71;100.00
3444;BME280;1736;52.068;6.968;2024-02-21T01:44:09;101932.91;;;8.60;100.00
3444;BME280;1736;52.068;6.968;2024-02-21T01:46:37;101908.31;;;8.73;100.00
3444;BME280;1736;52.068;6.968;2024-02-21T01:49:04;101902.81;;;8.76;100.00
3444;BME280;1736;52.068;6.968;2024-02-21T01:51:31;101889.38;;;8.65;100.00
3444;BME280;1736;52.068;6.968;2024-02-21T01:53:58;101884.66;;;8.70;100.00
3444;BME280;1736;52.068;6.968;2024-02-21T01:56:24;101873.13;;;8.71;100.00
3444;BME280;1736;52.068;6.968;2024-02-21T01:58:51;101889.16;;;8.68;100.00
3444;BME280;1736;52.068;6.968;2024-02-21T02:01:18;101876.13;;;8.65;100.00
3444;BME280;1736;52.068;6.968;2024-02-21T02:03:46;101865.25;;;8.70;100.00
3444;BME280;1736;52.068;6.968;2024-02-21T02:06:13;101880.81;;;8.76;100.00
3444;BME280;1736;52.068;6.968;2024-02-21T02:08:40;101876.31;;;8.62;100.00
3444;BME280;1736;52.068;6.968;2024-02-21T02:11:08;101860.59;;;8.75;100.00
3444;BME280;1736;52.068;6.968;2024-02-21T02:13:34;101862.97;;;8.64;100.00
3444;BME280;1736;52.068;6.968;2024-02-21T02:16:01;101852.53;;;8.76;100.00
3444;BME280;1736;52.068;6.968;2024-02-21T02:18:27;101850.09;;;8.73;100.00
3444;BME280;1736;52.068;6.968;2024-02-21T02:20:55;101839.50;;;8.73;100.00
3444;BME280;1736;52.068;6.968;2024-02-21T02:23:25;101839.25;;;8.62;100.00
3444;BME280;1736;52.068;6.968;2024-02-21T02:25:52;101844.28;;;8.67;100.00
3444;BME280;1736;52.068;6.968;2024-02-21T02:28:19;101854.84;;;8.82;100.00
3444;BME280;1736;52.068;6.968;2024-02-21T02:30:45;101857.25;;;8.71;100.00
3444;BME280;1736;52.068;6.968;2024-02-21T02:33:12;101829.56;;;8.77;100.00
3444;BME280;1736;52.068;6.968;2024-02-21T02:35:39;101827.88;;;8.76;100.00
3444;BME280;1736;52.068;6.968;2024-02-21T02:38:05;101818.31;;;8.73;100.00
3444;BME280;1736;52.068;6.968;2024-02-21T02:40:34;101809.59;;;8.71;100.00
3444;BME280;1736;52.068;6.968;2024-02-21T02:43:01;101807.66;;;8.59;100.00
3444;BME280;1736;52.068;6.968;2024-02-21T02:45:28;101814.16;;;8.69;100.00
3444;BME280;1736;52.068;6.968;2024-02-21T02:47:55;101807.03;;;8.70;100.00
3444;BME280;1736;52.068;6.968;2024-02-21T02:50:22;101797.31;;;8.70;100.00
3444;BME280;1736;52.068;6.968;2024-02-21T02:52:49;101789.00;;;8.76;100.00
3444;BME280;1736;52.068;6.968;2024-02-21T02:55:16;101806.41;;;8.80;100.00
3444;BME280;1736;52.068;6.968;2024-02-21T02:57:44;101800.38;;;8.78;100.00
3444;BME280;1736;52.068;6.968;2024-02-21T03:00:11;101809.97;;;8.65;100.00
3444;BME280;1736;52.068;6.968;2024-02-21T03:02:39;101824.19;;;8.78;100.00
3444;BME280;1736;52.068;6.968;2024-02-21T03:05:12;101812.53;;;8.67;100.00
3444;BME280;1736;52.068;6.968;2024-02-21T03:07:39;101824.78;;;8.83;100.00
3444;BME280;1736;52.068;6.968;2024-02-21T03:10:06;101807.03;;;8.85;100.00
3444;BME280;1736;52.068;6.968;2024-02-21T03:12:33;101802.38;;;8.75;100.00
3444;BME280;1736;52.068;6.968;2024-02-21T03:15:00;101804.22;;;8.73;100.00
3444;BME280;1736;52.068;6.968;2024-02-21T03:17:27;101803.91;;;8.63;100.00
3444;BME280;1736;52.068;6.968;2024-02-21T03:19:54;101800.06;;;8.69;100.00
3444;BME280;1736;52.068;6.968;2024-02-21T03:22:21;101812.66;;;8.79;100.00
3444;BME280;1736;52.068;6.968;2024-02-21T03:24:48;101797.16;;;8.73;100.00
3444;BME280;1736;52.068;6.968;2024-02-21T03:27:14;101800.38;;;8.78;100.00
3444;BME280;1736;52.068;6.968;2024-02-21T03:29:41;101806.97;;;8.71;100.00
3444;BME280;1736;52.068;6.968;2024-02-21T03:32:09;101799.66;;;8.90;100.00
3444;BME280;1736;52.068;6.968;2024-02-21T03:34:35;101808.78;;;8.71;100.00
3444;BME280;1736;52.068;6.968;2024-02-21T03:37:02;101798.69;;;8.62;100.00
3444;BME280;1736;52.068;6.968;2024-02-21T03:39:30;101790.91;;;8.74;100.00
3444;BME280;1736;52.068;6.968;2024-02-21T03:41:57;101784.31;;;8.81;100.00
3444;BME280;1736;52.068;6.968;2024-02-21T03:44:25;101784.50;;;8.78;100.00
3444;BME280;1736;52.068;6.968;2024-02-21T03:46:52;101790.03;;;8.74;100.00
3444;BME280;1736;52.068;6.968;2024-02-21T03:49:20;101789.25;;;8.87;100.00
3444;BME280;1736;52.068;6.968;2024-02-21T03:51:46;101791.88;;;8.87;100.00
3444;BME280;1736;52.068;6.968;2024-02-21T03:54:13;101797.75;;;8.92;100.00
3444;BME280;1736;52.068;6.968;2024-02-21T03:56:40;101785.84;;;8.85;100.00
3444;BME280;1736;52.068;6.968;2024-02-21T03:59:06;101798.69;;;8.77;100.00
3444;BME280;1736;52.068;6.968;2024-02-21T04:01:33;101788.25;;;8.74;100.00
3444;BME280;1736;52.068;6.968;2024-02-21T04:04:00;101786.09;;;8.81;100.00
3444;BME280;1736;52.068;6.968;2024-02-21T04:06:28;101794.31;;;8.76;100.00
3444;BME280;1736;52.068;6.968;2024-02-21T04:08:54;101788.75;;;8.81;100.00
3444;BME280;1736;52.068;6.968;2024-02-21T04:11:21;101770.88;;;8.70;100.00
3444;BME280;1736;52.068;6.968;2024-02-21T04:13:47;101779.19;;;8.78;100.00
3444;BME280;1736;52.068;6.968;2024-02-21T04:16:15;101774.16;;;8.74;100.00
3444;BME280;1736;52.068;6.968;2024-02-21T04:18:42;101785.38;;;8.63;100.00
3444;BME280;1736;52.068;6.968;2024-02-21T04:21:09;101770.88;;;8.70;100.00
3444;BME280;1736;52.068;6.968;2024-02-21T04:23:37;101781.94;;;8.77;100.00
3444;BME280;1736;52.068;6.968;2024-02-21T04:26:03;101790.50;;;8.66;100.00
3444;BME280;1736;52.068;6.968;2024-02-21T04:28:30;101783.69;;;8.62;100.00
3444;BME280;1736;52.068;6.968;2024-02-21T04:30:56;101781.28;;;8.73;100.00
3444;BME280;1736;52.068;6.968;2024-02-21T04:33:23;101785.88;;;8.70;100.00
3444;BME280;1736;52.068;6.968;2024-02-21T04:35:49;101775.25;;;8.85;100.00
3444;BME280;1736;52.068;6.968;2024-02-21T04:38:17;101766.91;;;8.77;100.00
3444;BME280;1736;52.068;6.968;2024-02-21T04:40:45;101767.72;;;8.93;100.00
3444;BME280;1736;52.068;6.968;2024-02-21T04:43:11;101777.31;;;8.80;100.00
3444;BME280;1736;52.068;6.968;2024-02-21T04:45:38;101759.06;;;8.76;100.00
3444;BME280;1736;52.068;6.968;2024-02-21T04:48:05;101775.19;;;8.87;100.00
3444;BME280;1736;52.068;6.968;2024-02-21T04:50:31;101763.50;;;8.75;100.00
3444;BME280;1736;52.068;6.968;2024-02-21T04:52:58;101763.88;;;8.69;100.00
3444;BME280;1736;52.068;6.968;2024-02-21T04:55:24;101744.94;;;8.61;100.00
3444;BME280;1736;52.068;6.968;2024-02-21T04:57:52;101744.41;;;8.84;100.00
3444;BME280;1736;52.068;6.968;2024-02-21T05:00:19;101740.00;;;8.85;100.00
3444;BME280;1736;52.068;6.968;2024-02-21T05:02:46;101735.88;;;8.65;100.00
3444;BME280;1736;52.068;6.968;2024-02-21T05:05:12;101727.41;;;8.88;100.00
3444;BME280;1736;52.068;6.968;2024-02-21T05:07:40;101722.97;;;8.75;100.00
3444;BME280;1736;52.068;6.968;2024-02-21T05:10:07;101713.13;;;8.63;100.00
3444;BME280;1736;52.068;6.968;2024-02-21T05:12:34;101717.47;;;8.64;100.00
3444;BME280;1736;52.068;6.968;2024-02-21T05:15:03;101725.47;;;8.62;100.00
3444;BME280;1736;52.068;6.968;2024-02-21T05:17:30;101701.56;;;8.64;100.00
3444;BME280;1736;52.068;6.968;2024-02-21T05:19:56;101695.63;;;8.60;100.00
3444;BME280;1736;52.068;6.968;2024-02-21T05:22:23;101696.84;;;8.55;100.00
3444;BME280;1736;52.068;6.968;2024-02-21T05:24:49;101690.69;;;8.54;100.00
3444;BME280;1736;52.068;6.968;2024-02-21T05:27:16;101686.44;;;8.52;100.00
3444;BME280;1736;52.068;6.968;2024-02-21T05:29:42;101700.31;;;8.55;100.00
3444;BME280;1736;52.068;6.968;2024-02-21T05:32:11;101697.66;;;8.55;100.00
3444;BME280;1736;52.068;6.968;2024-02-21T05:34:37;101708.97;;;8.43;100.00
3444;BME280;1736;52.068;6.968;2024-02-21T05:37:04;101704.69;;;8.56;100.00
3444;BME280;1736;52.068;6.968;2024-02-21T05:39:30;101698.47;;;8.71;100.00
3444;BME280;1736;52.068;6.968;2024-02-21T05:41:57;101696.75;;;8.70;100.00
3444;BME280;1736;52.068;6.968;2024-02-21T05:44:23;101699.41;;;8.70;100.00
3444;BME280;1736;52.068;6.968;2024-02-21T05:46:51;101685.03;;;8.60;100.00
3444;BME280;1736;52.068;6.968;2024-02-21T05:49:19;101669.53;;;8.54;100.00
3444;BME280;1736;52.068;6.968;2024-02-21T05:51:45;101667.28;;;8.62;100.00
3444;BME280;1736;52.068;6.968;2024-02-21T05:54:12;101669.91;;;8.62;100.00
3444;BME280;1736;52.068;6.968;2024-02-21T05:56:38;101658.28;;;8.65;100.00
3444;BME280;1736;52.068;6.968;2024-02-21T05:59:05;101662.16;;;8.59;100.00
3444;BME280;1736;52.068;6.968;2024-02-21T06:01:31;101658.38;;;8.63;100.00
3444;BME280;1736;52.068;6.968;2024-02-21T06:03:58;101655.00;;;8.75;100.00
3444;BME280;1736;52.068;6.968;2024-02-21T06:06:26;101665.41;;;8.64;100.00
3444;BME280;1736;52.068;6.968;2024-02-21T06:08:53;101650.53;;;8.62;100.00
3444;BME280;1736;52.068;6.968;2024-02-21T06:11:19;101643.84;;;8.56;100.00
3444;BME280;1736;52.068;6.968;2024-02-21T06:13:46;101649.69;;;8.61;100.00
3444;BME280;1736;52.068;6.968;2024-02-21T06:16:12;101641.72;;;8.47;100.00
3444;BME280;1736;52.068;6.968;2024-02-21T06:18:39;101630.97;;;8.50;100.00
3444;BME280;1736;52.068;6.968;2024-02-21T06:21:05;101621.25;;;8.51;100.00
3444;BME280;1736;52.068;6.968;2024-02-21T06:23:33;101628.97;;;8.54;100.00
3444;BME280;1736;52.068;6.968;2024-02-21T06:26:00;101617.09;;;8.61;100.00
3444;BME280;1736;52.068;6.968;2024-02-21T06:28:26;101610.19;;;8.44;100.00
3444;BME280;1736;52.068;6.968;2024-02-21T06:30:53;101629.63;;;8.43;100.00
3444;BME280;1736;52.068;6.968;2024-02-21T06:33:19;101626.63;;;8.49;100.00
3444;BME280;1736;52.068;6.968;2024-02-21T06:35:49;101615.47;;;8.44;100.00
3444;BME280;1736;52.068;6.968;2024-02-21T06:38:18;101610.94;;;8.46;100.00
3444;BME280;1736;52.068;6.968;2024-02-21T06:40:46;101606.50;;;8.47;100.00
3444;BME280;1736;52.068;6.968;2024-02-21T06:43:17;101600.25;;;8.48;100.00
3444;BME280;1736;52.068;6.968;2024-02-21T06:45:43;101611.31;;;8.54;100.00
3444;BME280;1736;52.068;6.968;2024-02-21T06:48:12;101612.19;;;8.55;100.00
3444;BME280;1736;52.068;6.968;2024-02-21T06:50:39;101618.31;;;8.55;100.00
3444;BME280;1736;52.068;6.968;2024-02-21T06:53:05;101613.59;;;8.60;100.00
3444;BME280;1736;52.068;6.968;2024-02-21T06:55:32;101605.06;;;8.55;100.00
3444;BME280;1736;52.068;6.968;2024-02-21T06:58:02;101624.38;;;8.57;100.00
3444;BME280;1736;52.068;6.968;2024-02-21T07:00:29;101609.25;;;8.59;100.00
3444;BME280;1736;52.068;6.968;2024-02-21T07:02:55;101606.97;;;8.67;100.00
3444;BME280;1736;52.068;6.968;2024-02-21T07:05:23;101613.31;;;8.65;100.00
3444;BME280;1736;52.068;6.968;2024-02-21T07:07:49;101594.50;;;8.55;100.00
3444;BME280;1736;52.068;6.968;2024-02-21T07:10:16;101613.31;;;8.51;100.00
3444;BME280;1736;52.068;6.968;2024-02-21T07:12:42;101605.16;;;8.54;100.00
3444;BME280;1736;52.068;6.968;2024-02-21T07:15:10;101600.75;;;8.54;100.00
3444;BME280;1736;52.068;6.968;2024-02-21T07:17:37;101607.19;;;8.64;100.00
3444;BME280;1736;52.068;6.968;2024-02-21T07:20:04;101599.34;;;8.63;100.00
3444;BME280;1736;52.068;6.968;2024-02-21T07:22:31;101594.41;;;8.57;100.00
3444;BME280;1736;52.068;6.968;2024-02-21T07:24:57;101598.19;;;8.53;100.00
3444;BME280;1736;52.068;6.968;2024-02-21T07:27:24;101590.06;;;8.56;100.00
3444;BME280;1736;52.068;6.968;2024-02-21T07:29:53;101594.69;;;8.66;100.00
3444;BME280;1736;52.068;6.968;2024-02-21T07:32:21;101597.81;;;8.73;100.00
3444;BME280;1736;52.068;6.968;2024-02-21T07:34:48;101603.78;;;8.62;100.00
3444;BME280;1736;52.068;6.968;2024-02-21T07:37:14;101589.69;;;8.62;100.00
3444;BME280;1736;52.068;6.968;2024-02-21T07:39:41;101595.34;;;8.70;100.00
3444;BME280;1736;52.068;6.968;2024-02-21T07:42:07;101583.19;;;8.81;100.00
3444;BME280;1736;52.068;6.968;2024-02-21T07:44:34;101582.50;;;8.78;100.00
3444;BME280;1736;52.068;6.968;2024-02-21T07:47:01;101576.84;;;8.84;100.00
3444;BME280;1736;52.068;6.968;2024-02-21T07:49:29;101568.59;;;8.88;100.00
3444;BME280;1736;52.068;6.968;2024-02-21T07:51:56;101575.84;;;8.99;100.00
3444;BME280;1736;52.068;6.968;2024-02-21T07:54:22;101581.16;;;8.99;100.00
3444;BME280;1736;52.068;6.968;2024-02-21T07:56:49;101570.97;;;8.93;100.00
3444;BME280;1736;52.068;6.968;2024-02-21T07:59:15;101570.56;;;8.99;100.00
3444;BME280;1736;52.068;6.968;2024-02-21T08:01:42;101576.81;;;8.98;100.00
3444;BME280;1736;52.068;6.968;2024-02-21T08:04:09;101557.63;;;8.94;100.00
3444;BME280;1736;52.068;6.968;2024-02-21T08:06:37;101558.66;;;9.06;100.00
3444;BME280;1736;52.068;6.968;2024-02-21T08:09:04;101556.69;;;8.95;100.00
3444;BME280;1736;52.068;6.968;2024-02-21T08:11:30;101549.66;;;9.08;100.00
3444;BME280;1736;52.068;6.968;2024-02-21T08:13:57;101547.38;;;9.16;100.00
3444;BME280;1736;52.068;6.968;2024-02-21T08:16:24;101552.88;;;9.13;100.00
3444;BME280;1736;52.068;6.968;2024-02-21T08:18:51;101534.94;;;9.31;100.00
3444;BME280;1736;52.068;6.968;2024-02-21T08:21:17;101525.44;;;9.14;99.60
3444;BME280;1736;52.068;6.968;2024-02-21T08:23:45;101531.63;;;9.27;99.75
3444;BME280;1736;52.068;6.968;2024-02-21T08:26:16;101519.34;;;9.26;99.54
3444;BME280;1736;52.068;6.968;2024-02-21T08:28:42;101511.00;;;9.32;99.34
3444;BME280;1736;52.068;6.968;2024-02-21T08:31:09;101503.75;;;9.22;98.65
3444;BME280;1736;52.068;6.968;2024-02-21T08:33:35;101512.94;;;9.16;98.67
3444;BME280;1736;52.068;6.968;2024-02-21T08:36:02;101504.63;;;9.22;98.39
3444;BME280;1736;52.068;6.968;2024-02-21T08:38:29;101496.84;;;9.46;97.98
3444;BME280;1736;52.068;6.968;2024-02-21T08:40:57;101513.16;;;9.40;97.57
3444;BME280;1736;52.068;6.968;2024-02-21T08:43:23;101509.66;;;9.39;97.54
3444;BME280;1736;52.068;6.968;2024-02-21T08:45:50;101512.66;;;9.47;96.86
3444;BME280;1736;52.068;6.968;2024-02-21T08:48:16;101502.63;;;9.65;96.56
3444;BME280;1736;52.068;6.968;2024-02-21T08:50:43;101504.28;;;9.53;96.17
3444;BME280;1736;52.068;6.968;2024-02-21T08:53:09;101507.22;;;9.75;95.97
3444;BME280;1736;52.068;6.968;2024-02-21T08:55:36;101494.69;;;9.77;95.05
3444;BME280;1736;52.068;6.968;2024-02-21T08:58:04;101508.38;;;9.84;94.70
3444;BME280;1736;52.068;6.968;2024-02-21T09:00:30;101478.38;;;9.83;94.60
3444;BME280;1736;52.068;6.968;2024-02-21T09:02:57;101481.88;;;9.71;94.41
3444;BME280;1736;52.068;6.968;2024-02-21T09:05:24;101468.28;;;9.63;94.37
3444;BME280;1736;52.068;6.968;2024-02-21T09:07:50;101468.19;;;9.77;94.49
3444;BME280;1736;52.068;6.968;2024-02-21T09:10:17;101462.56;;;9.82;94.64
3444;BME280;1736;52.068;6.968;2024-02-21T09:12:43;101468.09;;;9.91;94.62
3444;BME280;1736;52.068;6.968;2024-02-21T09:15:11;101477.03;;;9.90;94.43
3444;BME280;1736;52.068;6.968;2024-02-21T09:17:38;101472.66;;;9.89;94.43
3444;BME280;1736;52.068;6.968;2024-02-21T09:20:07;101468.50;;;9.85;94.23
3444;BME280;1736;52.068;6.968;2024-02-21T09:22:35;101478.47;;;9.94;94.27
3444;BME280;1736;52.068;6.968;2024-02-21T09:25:03;101456.34;;;9.95;94.04
3444;BME280;1736;52.068;6.968;2024-02-21T09:27:30;101466.19;;;9.93;93.48
3444;BME280;1736;52.068;6.968;2024-02-21T09:29:56;101465.97;;;9.71;93.98
3444;BME280;1736;52.068;6.968;2024-02-21T09:32:24;101463.31;;;9.84;94.10
3444;BME280;1736;52.068;6.968;2024-02-21T09:34:52;101466.38;;;9.78;94.25
3444;BME280;1736;52.068;6.968;2024-02-21T09:37:19;101473.38;;;9.79;94.52
3444;BME280;1736;52.068;6.968;2024-02-21T09:39:46;101449.44;;;9.80;94.79
3444;BME280;1736;52.068;6.968;2024-02-21T09:42:14;101465.97;;;9.96;94.39
3444;BME280;1736;52.068;6.968;2024-02-21T09:44:45;101458.22;;;9.93;93.92
3444;BME280;1736;52.068;6.968;2024-02-21T09:47:17;101455.78;;;10.03;93.45
3444;BME280;1736;52.068;6.968;2024-02-21T09:49:47;101458.50;;;10.15;93.26
3444;BME280;1736;52.068;6.968;2024-02-21T09:52:15;101448.91;;;10.25;92.41
3444;BME280;1736;52.068;6.968;2024-02-21T09:54:42;101457.09;;;10.10;91.91
3444;BME280;1736;52.068;6.968;2024-02-21T09:57:10;101434.06;;;9.98;92.14
3444;BME280;1736;52.068;6.968;2024-02-21T09:59:37;101440.00;;;10.01;91.79
3444;BME280;1736;52.068;6.968;2024-02-21T10:02:04;101435.66;;;10.00;91.75
3444;BME280;1736;52.068;6.968;2024-02-21T10:04:31;101444.88;;;10.32;91.48
3444;BME280;1736;52.068;6.968;2024-02-21T10:06:59;101430.56;;;10.35;91.08
3444;BME280;1736;52.068;6.968;2024-02-21T10:09:28;101423.66;;;10.32;90.36
3444;BME280;1736;52.068;6.968;2024-02-21T10:11:55;101421.66;;;10.23;90.09
3444;BME280;1736;52.068;6.968;2024-02-21T10:14:22;101413.91;;;10.20;90.31
3444;BME280;1736;52.068;6.968;2024-02-21T10:16:56;101435.66;;;10.25;90.52
3444;BME280;1736;52.068;6.968;2024-02-21T10:19:23;101471.31;;;10.21;90.26
3444;BME280;1736;52.068;6.968;2024-02-21T10:22:04;101050.84;;;10.39;90.10
3444;BME280;1736;52.068;6.968;2024-02-21T10:24:33;101431.59;;;10.45;89.97
3444;BME280;1736;52.068;6.968;2024-02-21T10:27:02;101434.59;;;10.28;89.74
3444;BME280;1736;52.068;6.968;2024-02-21T10:29:28;101430.53;;;10.48;89.35
3444;BME280;1736;52.068;6.968;2024-02-21T10:32:04;101416.09;;;10.52;89.43
3444;BME280;1736;52.068;6.968;2024-02-21T10:34:30;101444.63;;;10.61;89.25
3444;BME280;1736;52.068;6.968;2024-02-21T10:37:00;101402.69;;;10.53;88.78
3444;BME280;1736;52.068;6.968;2024-02-21T10:39:28;101415.28;;;10.26;89.01
3444;BME280;1736;52.068;6.968;2024-02-21T10:41:59;101417.38;;;10.46;88.83
3444;BME280;1736;52.068;6.968;2024-02-21T10:44:28;101387.63;;;10.53;88.37
3444;BME280;1736;52.068;6.968;2024-02-21T10:46:55;101393.38;;;10.48;88.57
3444;BME280;1736;52.068;6.968;2024-02-21T10:49:23;101381.81;;;10.48;88.90
3444;BME280;1736;52.068;6.968;2024-02-21T10:51:55;101382.78;;;10.48;89.06
3444;BME280;1736;52.068;6.968;2024-02-21T10:54:44;101368.75;;;10.45;89.20
3444;BME280;1736;52.068;6.968;2024-02-21T10:57:12;101370.31;;;10.24;89.71
3444;BME280;1736;52.068;6.968;2024-02-21T10:59:40;101361.56;;;10.48;89.79
3444;BME280;1736;52.068;6.968;2024-02-21T11:02:07;101364.75;;;10.40;89.68
3444;BME280;1736;52.068;6.968;2024-02-21T11:04:34;101349.28;;;10.21;90.07
3444;BME280;1736;52.068;6.968;2024-02-21T11:07:03;101337.81;;;10.33;90.12
3444;BME280;1736;52.068;6.968;2024-02-21T11:09:30;101346.84;;;10.18;90.57
3444;BME280;1736;52.068;6.968;2024-02-21T11:12:02;101316.88;;;10.05;90.98
3444;BME280;1736;52.068;6.968;2024-02-21T11:14:29;101322.59;;;9.99;91.65
3444;BME280;1736;52.068;6.968;2024-02-21T11:16:58;101330.75;;;9.96;92.58
3444;BME280;1736;52.068;6.968;2024-02-21T11:19:26;101305.22;;;9.83;93.47
3444;BME280;1736;52.068;6.968;2024-02-21T11:21:54;101315.63;;;9.86;94.53
3444;BME280;1736;52.068;6.968;2024-02-21T11:24:28;101296.00;;;9.76;95.11
3444;BME280;1736;52.068;6.968;2024-02-21T11:26:55;101298.84;;;9.85;95.37
3444;BME280;1736;52.068;6.968;2024-02-21T11:29:26;101308.72;;;10.08;95.40
3444;BME280;1736;52.068;6.968;2024-02-21T11:31:54;101293.97;;;9.92;95.31
3444;BME280;1736;52.068;6.968;2024-02-21T11:34:21;101286.31;;;10.00;94.95
3444;BME280;1736;52.068;6.968;2024-02-21T11:36:48;101268.97;;;9.83;94.88
3444;BME280;1736;52.068;6.968;2024-02-21T11:39:23;101262.53;;;9.98;94.92
3444;BME280;1736;52.068;6.968;2024-02-21T11:42:03;101259.19;;;9.84;94.46
3444;BME280;1736;52.068;6.968;2024-02-21T11:44:31;101234.22;;;9.75;94.60
3444;BME280;1736;52.068;6.968;2024-02-21T11:46:57;101229.53;;;9.79;94.50
3444;BME280;1736;52.068;6.968;2024-02-21T11:49:25;101225.16;;;9.90;94.53
3444;BME280;1736;52.068;6.968;2024-02-21T11:51:58;101215.56;;;9.77;94.27
3444;BME280;1736;52.068;6.968;2024-02-21T11:54:27;101209.91;;;9.81;94.33
3444;BME280;1736;52.068;6.968;2024-02-21T11:56:54;101219.13;;;9.88;94.10
3444;BME280;1736;52.068;6.968;2024-02-21T11:59:20;101199.09;;;9.84;93.66
3444;BME280;1736;52.068;6.968;2024-02-21T12:01:48;101188.31;;;10.11;92.87
3444;BME280;1736;52.068;6.968;2024-02-21T12:04:17;101179.75;;;10.18;92.08
3444;BME280;1736;52.068;6.968;2024-02-21T12:06:45;101169.97;;;10.31;91.54
3444;BME280;1736;52.068;6.968;2024-02-21T12:09:14;101154.59;;;10.48;90.78
3444;BME280;1736;52.068;6.968;2024-02-21T12:11:40;101152.78;;;10.59;89.94
3444;BME280;1736;52.068;6.968;2024-02-21T12:14:07;101145.31;;;10.64;88.90
3444;BME280;1736;52.068;6.968;2024-02-21T12:16:35;101142.31;;;10.80;87.69
3444;BME280;1736;52.068;6.968;2024-02-21T12:19:03;101154.03;;;10.66;87.41
3444;BME280;1736;52.068;6.968;2024-02-21T12:21:31;101152.22;;;10.78;87.13
3444;BME280;1736;52.068;6.968;2024-02-21T12:23:58;101138.72;;;10.92;86.81
3444;BME280;1736;52.068;6.968;2024-02-21T12:26:25;101134.00;;;10.73;86.17
3444;BME280;1736;52.068;6.968;2024-02-21T12:28:53;101128.59;;;10.86;85.68
3444;BME280;1736;52.068;6.968;2024-02-21T12:31:20;101117.47;;;10.70;84.99
3444;BME280;1736;52.068;6.968;2024-02-21T12:33:47;101104.56;;;10.87;84.76
3444;BME280;1736;52.068;6.968;2024-02-21T12:36:15;101074.28;;;11.01;84.43
3444;BME280;1736;52.068;6.968;2024-02-21T12:38:42;101074.88;;;10.93;84.20
3444;BME280;1736;52.068;6.968;2024-02-21T12:41:09;101089.84;;;11.05;83.27
3444;BME280;1736;52.068;6.968;2024-02-21T12:43:35;101085.16;;;10.98;83.07
3444;BME280;1736;52.068;6.968;2024-02-21T12:46:03;101122.91;;;10.90;83.42
3444;BME280;1736;52.068;6.968;2024-02-21T12:48:30;101116.50;;;10.82;83.11
3444;BME280;1736;52.068;6.968;2024-02-21T12:50:56;101098.28;;;10.88;83.23
3444;BME280;1736;52.068;6.968;2024-02-21T12:53:25;101089.50;;;10.77;83.58
3444;BME280;1736;52.068;6.968;2024-02-21T12:55:51;101091.66;;;10.83;83.45
3444;BME280;1736;52.068;6.968;2024-02-21T12:58:18;101076.44;;;10.74;83.69
3444;BME280;1736;52.068;6.968;2024-02-21T13:00:45;101080.16;;;10.60;83.83
3444;BME280;1736;52.068;6.968;2024-02-21T13:03:11;101052.19;;;10.56;83.36
3444;BME280;1736;52.068;6.968;2024-02-21T13:05:38;101070.16;;;10.63;83.46
3444;BME280;1736;52.068;6.968;2024-02-21T13:08:05;101038.31;;;10.52;83.68
3444;BME280;1736;52.068;6.968;2024-02-21T13:10:33;101012.97;;;10.71;84.00
3444;BME280;1736;52.068;6.968;2024-02-21T13:13:00;101026.03;;;10.85;83.95